Aeroporto :
LOGIN :

Iscrizione | Disclaimer

   EN    FR    IT 

 










Sommario :    VFR   VFR Marginale   IFR   IFR Intensivo   IFR Molto Intensivo
Visibilità : 
Base nubi : 
>= 8 km
>= 3000ft
5 / 8 km
1000 / 3000 ft
1500m / 5 km
500 / 1000 ft
800 / 1500m
200 / 500 ft
< 800m
< 200 ft
Simboli :   Temporali  Nebbia  Neve Forte  Precipitazioni Forti  Vento > 20 kt
SIGMETs :   Varie  Temporali  Ghiacco  Turbolenza  Onda orograficha  Ceneri Vulcaniche






- Altitudine del aeroporto : 138 ft
- Codice IATA : BIO


LEBB - Bilbao

ULTIMO METAR :
  • 301930Z 10003KT 070V140 9999 FEW020 SCT060 04/04 Q1018 TEMPO 3000 SHRA SCT025TCU

METARs OBSOLETI :
  • 301900Z 14003KT 090V190 9999 -RA FEW007 SCT025 BKN060 04/04 Q1018 TEMPO 3000 SHRA SCT025TCU
  • 301830Z VRB01KT 9999 FEW007 SCT030 BKN055 05/03 Q1018 TEMPO 3000 SHRA SCT025TCU
  • 301800Z VRB02KT 9999 FEW009 FEW025TCU SCT050 04/03 Q1018 TEMPO 3000 SHRA
  • 301730Z VRB02KT 9999 FEW009 FEW025TCU SCT050 04/03 Q1018 TEMPO 3000 SHRA
  • 301700Z VRB02KT 9999 FEW009 FEW025TCU SCT060 04/03 Q1018 TEMPO 3000 SHRA

TAF TAF LEBB
Valido dal 30 a 18 ore il 31 a 18 ore UTC


301700Z 3018/3118 VRB05KT 9999 SCT010 SCT030 TX09/3115Z TNM00/3103Z
TEMPO 3018/3024 SHRAGS SCT025TCU
PROB40
TEMPO 3018/3024 3000 SHRAGR SCT025TCU SCT030CB
BECMG 3106/3110 06010KT



MetMap, La meteo Aeronautica in un colpo d'occhio ! - Copyright ORBIFLY Dicembre 2007 - Disclaimer

ORBIFLY MET'MAP TEAM :

Programmazione e sviluppo : Alexandra Zaïnal
Concezione : Baudouin d'Aumeries
Aiuto per la programmazione : Marc-Olivier Méhu
Supporto tecnico e logistico : Manuel Goepfert
Aiuto per la traduzione : Arnaldo La Scala

Contatto : metmap@orbifly.com




FONTI E CREDITI :

   NOAA